sensor_id;sensor_type;location;lat;lon;timestamp;pressure;altitude;pressure_sealevel;temperature;humidity
73063;BME280;61230;46.328;19.972;2024-01-15T00:02:14;99514.63;;;0.57;100.00
73063;BME280;61230;46.328;19.972;2024-01-15T00:04:42;99502.72;;;0.54;100.00
73063;BME280;61230;46.328;19.972;2024-01-15T00:07:10;99498.69;;;0.50;100.00
73063;BME280;61230;46.328;19.972;2024-01-15T00:09:38;99510.69;;;0.51;100.00
73063;BME280;61230;46.328;19.972;2024-01-15T00:12:06;99501.28;;;0.50;100.00
73063;BME280;61230;46.328;19.972;2024-01-15T00:14:33;99505.50;;;0.51;100.00
73063;BME280;61230;46.328;19.972;2024-01-15T00:17:01;99495.16;;;0.51;100.00
73063;BME280;61230;46.328;19.972;2024-01-15T00:19:29;99492.75;;;0.48;100.00
73063;BME280;61230;46.328;19.972;2024-01-15T00:21:59;99485.50;;;0.41;100.00
73063;BME280;61230;46.328;19.972;2024-01-15T00:24:27;99476.31;;;0.37;100.00
73063;BME280;61230;46.328;19.972;2024-01-15T00:26:55;99485.91;;;0.35;100.00
73063;BME280;61230;46.328;19.972;2024-01-15T00:29:22;99479.62;;;0.39;100.00
73063;BME280;61230;46.328;19.972;2024-01-15T00:31:50;99485.63;;;0.39;100.00
73063;BME280;61230;46.328;19.972;2024-01-15T00:34:18;99477.75;;;0.41;100.00
73063;BME280;61230;46.328;19.972;2024-01-15T00:36:46;99476.91;;;0.40;100.00
73063;BME280;61230;46.328;19.972;2024-01-15T00:39:13;99416.84;;;0.10;100.00
73063;BME280;61230;46.328;19.972;2024-01-15T00:41:41;99461.00;;;0.34;100.00
73063;BME280;61230;46.328;19.972;2024-01-15T00:44:10;99458.69;;;0.29;100.00
73063;BME280;61230;46.328;19.972;2024-01-15T00:46:44;99449.28;;;0.28;100.00
73063;BME280;61230;46.328;19.972;2024-01-15T00:49:13;99453.09;;;0.23;100.00
73063;BME280;61230;46.328;19.972;2024-01-15T00:51:41;99447.81;;;0.24;100.00
73063;BME280;61230;46.328;19.972;2024-01-15T00:54:09;99445.81;;;0.15;100.00
73063;BME280;61230;46.328;19.972;2024-01-15T00:56:37;99444.91;;;0.16;100.00
73063;BME280;61230;46.328;19.972;2024-01-15T00:59:05;99452.31;;;0.08;100.00
73063;BME280;61230;46.328;19.972;2024-01-15T01:01:32;99454.09;;;0.08;100.00
73063;BME280;61230;46.328;19.972;2024-01-15T01:04:00;99442.38;;;0.02;100.00
73063;BME280;61230;46.328;19.972;2024-01-15T01:06:28;99443.81;;;0.06;100.00
73063;BME280;61230;46.328;19.972;2024-01-15T01:09:00;99389.44;;;-0.19;100.00
73063;BME280;61230;46.328;19.972;2024-01-15T01:11:28;99428.63;;;0.02;100.00
73063;BME280;61230;46.328;19.972;2024-01-15T01:13:55;99409.94;;;-0.16;100.00
73063;BME280;61230;46.328;19.972;2024-01-15T01:16:24;99429.72;;;-0.03;100.00
73063;BME280;61230;46.328;19.972;2024-01-15T01:18:52;99428.16;;;-0.05;100.00
73063;BME280;61230;46.328;19.972;2024-01-15T01:21:20;99420.34;;;-0.04;100.00
73063;BME280;61230;46.328;19.972;2024-01-15T01:23:48;99427.06;;;-0.01;100.00
73063;BME280;61230;46.328;19.972;2024-01-15T01:26:16;99415.88;;;-0.02;100.00
73063;BME280;61230;46.328;19.972;2024-01-15T01:28:44;99410.81;;;-0.03;100.00
73063;BME280;61230;46.328;19.972;2024-01-15T01:31:12;99411.75;;;-0.04;100.00
73063;BME280;61230;46.328;19.972;2024-01-15T01:33:40;99398.19;;;-0.08;100.00
73063;BME280;61230;46.328;19.972;2024-01-15T01:36:09;99396.31;;;-0.06;100.00
73063;BME280;61230;46.328;19.972;2024-01-15T01:38:38;99345.56;;;-0.33;100.00
73063;BME280;61230;46.328;19.972;2024-01-15T01:41:05;99385.69;;;-0.01;100.00
73063;BME280;61230;46.328;19.972;2024-01-15T01:43:33;99350.28;;;-0.13;100.00
73063;BME280;61230;46.328;19.972;2024-01-15T01:46:01;99410.97;;;0.21;100.00
73063;BME280;61230;46.328;19.972;2024-01-15T01:48:31;99396.59;;;0.29;100.00
73063;BME280;61230;46.328;19.972;2024-01-15T01:51:00;99398.06;;;0.33;100.00
73063;BME280;61230;46.328;19.972;2024-01-15T01:53:31;99396.12;;;0.37;100.00
73063;BME280;61230;46.328;19.972;2024-01-15T01:55:59;99396.31;;;0.34;100.00
73063;BME280;61230;46.328;19.972;2024-01-15T01:58:28;99379.53;;;0.27;100.00
73063;BME280;61230;46.328;19.972;2024-01-15T02:00:56;99371.56;;;0.30;100.00
73063;BME280;61230;46.328;19.972;2024-01-15T02:03:30;99309.81;;;0.00;100.00
73063;BME280;61230;46.328;19.972;2024-01-15T02:05:59;99360.37;;;0.29;100.00
73063;BME280;61230;46.328;19.972;2024-01-15T02:08:27;99367.63;;;0.24;100.00
73063;BME280;61230;46.328;19.972;2024-01-15T02:10:55;99373.22;;;0.18;100.00
73063;BME280;61230;46.328;19.972;2024-01-15T02:13:22;99361.81;;;0.21;100.00
73063;BME280;61230;46.328;19.972;2024-01-15T02:15:50;99358.53;;;0.19;100.00
73063;BME280;61230;46.328;19.972;2024-01-15T02:18:18;99362.22;;;0.15;100.00
73063;BME280;61230;46.328;19.972;2024-01-15T02:20:46;99328.50;;;-0.09;100.00
73063;BME280;61230;46.328;19.972;2024-01-15T02:23:15;99367.19;;;0.05;100.00
73063;BME280;61230;46.328;19.972;2024-01-15T02:25:44;99307.97;;;-0.37;100.00
73063;BME280;61230;46.328;19.972;2024-01-15T02:28:15;99351.25;;;-0.02;100.00
73063;BME280;61230;46.328;19.972;2024-01-15T02:30:43;99348.03;;;-0.05;100.00
73063;BME280;61230;46.328;19.972;2024-01-15T02:33:11;99301.13;;;-0.38;100.00
73063;BME280;61230;46.328;19.972;2024-01-15T02:35:40;99347.63;;;-0.12;100.00
73063;BME280;61230;46.328;19.972;2024-01-15T02:38:08;99329.28;;;-0.21;100.00
73063;BME280;61230;46.328;19.972;2024-01-15T02:40:35;99345.75;;;-0.10;100.00
73063;BME280;61230;46.328;19.972;2024-01-15T02:43:03;99338.09;;;-0.11;100.00
73063;BME280;61230;46.328;19.972;2024-01-15T02:45:31;99328.19;;;-0.05;100.00
73063;BME280;61230;46.328;19.972;2024-01-15T02:47:59;99271.72;;;-0.23;100.00
73063;BME280;61230;46.328;19.972;2024-01-15T02:50:27;99310.62;;;0.13;100.00
73063;BME280;61230;46.328;19.972;2024-01-15T02:52:55;99312.47;;;0.24;100.00
73063;BME280;61230;46.328;19.972;2024-01-15T02:55:22;99300.59;;;0.34;100.00
73063;BME280;61230;46.328;19.972;2024-01-15T02:57:50;99300.91;;;0.42;100.00
73063;BME280;61230;46.328;19.972;2024-01-15T03:00:18;99286.31;;;0.53;100.00
73063;BME280;61230;46.328;19.972;2024-01-15T03:02:45;99282.13;;;0.64;100.00
73063;BME280;61230;46.328;19.972;2024-01-15T03:05:15;99272.81;;;0.74;100.00
73063;BME280;61230;46.328;19.972;2024-01-15T03:07:43;99266.38;;;0.79;100.00
73063;BME280;61230;46.328;19.972;2024-01-15T03:10:11;99232.66;;;0.68;100.00
73063;BME280;61230;46.328;19.972;2024-01-15T03:12:39;99255.75;;;0.95;100.00
73063;BME280;61230;46.328;19.972;2024-01-15T03:15:07;99255.94;;;1.04;100.00
73063;BME280;61230;46.328;19.972;2024-01-15T03:17:35;99215.31;;;0.81;100.00
73063;BME280;61230;46.328;19.972;2024-01-15T03:20:02;99266.22;;;1.17;100.00
73063;BME280;61230;46.328;19.972;2024-01-15T03:22:31;99265.09;;;1.21;100.00
73063;BME280;61230;46.328;19.972;2024-01-15T03:24:58;99259.03;;;1.33;100.00
73063;BME280;61230;46.328;19.972;2024-01-15T03:27:26;99246.66;;;1.37;100.00
73063;BME280;61230;46.328;19.972;2024-01-15T03:29:54;99245.16;;;1.45;100.00
73063;BME280;61230;46.328;19.972;2024-01-15T03:32:21;99245.41;;;1.53;100.00
73063;BME280;61230;46.328;19.972;2024-01-15T03:34:49;99235.66;;;1.57;100.00
73063;BME280;61230;46.328;19.972;2024-01-15T03:37:17;99235.34;;;1.61;100.00
73063;BME280;61230;46.328;19.972;2024-01-15T03:39:45;99245.13;;;1.69;100.00
73063;BME280;61230;46.328;19.972;2024-01-15T03:42:13;99234.53;;;1.72;100.00
73063;BME280;61230;46.328;19.972;2024-01-15T03:44:42;99239.34;;;1.77;100.00
73063;BME280;61230;46.328;19.972;2024-01-15T03:47:09;99233.25;;;1.78;100.00
73063;BME280;61230;46.328;19.972;2024-01-15T03:49:37;99222.41;;;1.84;100.00
73063;BME280;61230;46.328;19.972;2024-01-15T03:52:05;99226.19;;;1.91;100.00
73063;BME280;61230;46.328;19.972;2024-01-15T03:54:33;99220.44;;;1.87;100.00
73063;BME280;61230;46.328;19.972;2024-01-15T03:57:00;99205.66;;;1.88;100.00
73063;BME280;61230;46.328;19.972;2024-01-15T03:59:28;99213.94;;;1.93;100.00
73063;BME280;61230;46.328;19.972;2024-01-15T04:01:56;99215.59;;;1.94;100.00
73063;BME280;61230;46.328;19.972;2024-01-15T04:04:24;99206.75;;;1.96;100.00
73063;BME280;61230;46.328;19.972;2024-01-15T04:06:51;99208.53;;;1.96;100.00
73063;BME280;61230;46.328;19.972;2024-01-15T04:09:19;99162.25;;;1.67;100.00
73063;BME280;61230;46.328;19.972;2024-01-15T04:11:47;99192.72;;;1.99;100.00
73063;BME280;61230;46.328;19.972;2024-01-15T04:14:15;99148.97;;;1.72;100.00
73063;BME280;61230;46.328;19.972;2024-01-15T04:16:42;99147.31;;;1.71;100.00
73063;BME280;61230;46.328;19.972;2024-01-15T04:19:10;99183.06;;;2.01;100.00
73063;BME280;61230;46.328;19.972;2024-01-15T04:21:38;99182.34;;;1.99;100.00
73063;BME280;61230;46.328;19.972;2024-01-15T04:24:06;99184.22;;;1.97;100.00
73063;BME280;61230;46.328;19.972;2024-01-15T04:26:33;99177.16;;;1.99;100.00
73063;BME280;61230;46.328;19.972;2024-01-15T04:29:01;99181.16;;;2.03;100.00
73063;BME280;61230;46.328;19.972;2024-01-15T04:31:29;99122.59;;;1.78;100.00
73063;BME280;61230;46.328;19.972;2024-01-15T04:33:57;99164.91;;;2.12;100.00
73063;BME280;61230;46.328;19.972;2024-01-15T04:36:24;99167.25;;;2.15;100.00
73063;BME280;61230;46.328;19.972;2024-01-15T04:38:52;99168.66;;;2.19;100.00
73063;BME280;61230;46.328;19.972;2024-01-15T04:41:20;99160.31;;;2.26;100.00
73063;BME280;61230;46.328;19.972;2024-01-15T04:43:48;99170.44;;;2.29;100.00
73063;BME280;61230;46.328;19.972;2024-01-15T04:46:15;99114.91;;;2.10;100.00
73063;BME280;61230;46.328;19.972;2024-01-15T04:48:43;99161.69;;;2.42;100.00
73063;BME280;61230;46.328;19.972;2024-01-15T04:51:11;99153.56;;;2.46;100.00
73063;BME280;61230;46.328;19.972;2024-01-15T04:53:38;99164.75;;;2.47;100.00
73063;BME280;61230;46.328;19.972;2024-01-15T04:56:06;99159.44;;;2.48;100.00
73063;BME280;61230;46.328;19.972;2024-01-15T04:58:34;99152.25;;;2.52;100.00
73063;BME280;61230;46.328;19.972;2024-01-15T05:01:01;99154.59;;;2.55;100.00
73063;BME280;61230;46.328;19.972;2024-01-15T05:03:29;99155.87;;;2.60;100.00
73063;BME280;61230;46.328;19.972;2024-01-15T05:05:57;99152.31;;;2.61;100.00
73063;BME280;61230;46.328;19.972;2024-01-15T05:08:25;99150.31;;;2.65;100.00
73063;BME280;61230;46.328;19.972;2024-01-15T05:10:52;99143.94;;;2.69;100.00
73063;BME280;61230;46.328;19.972;2024-01-15T05:13:20;99149.19;;;2.78;100.00
73063;BME280;61230;46.328;19.972;2024-01-15T05:15:47;99146.59;;;2.78;100.00
73063;BME280;61230;46.328;19.972;2024-01-15T05:18:16;99065.69;;;2.30;100.00
73063;BME280;61230;46.328;19.972;2024-01-15T05:20:44;99138.56;;;2.81;100.00
73063;BME280;61230;46.328;19.972;2024-01-15T05:23:12;99097.00;;;2.61;100.00
73063;BME280;61230;46.328;19.972;2024-01-15T05:25:40;99135.25;;;2.90;100.00
73063;BME280;61230;46.328;19.972;2024-01-15T05:28:07;99097.31;;;2.67;100.00
73063;BME280;61230;46.328;19.972;2024-01-15T05:30:35;99107.66;;;2.78;100.00
73063;BME280;61230;46.328;19.972;2024-01-15T05:33:03;99151.75;;;3.01;100.00
73063;BME280;61230;46.328;19.972;2024-01-15T05:35:31;99106.97;;;2.76;100.00
73063;BME280;61230;46.328;19.972;2024-01-15T05:37:59;99161.91;;;3.04;100.00
73063;BME280;61230;46.328;19.972;2024-01-15T05:40:27;99151.59;;;3.02;100.00
73063;BME280;61230;46.328;19.972;2024-01-15T05:42:54;99141.09;;;3.04;100.00
73063;BME280;61230;46.328;19.972;2024-01-15T05:45:22;99137.53;;;3.05;100.00
73063;BME280;61230;46.328;19.972;2024-01-15T05:47:50;99098.53;;;2.84;100.00
73063;BME280;61230;46.328;19.972;2024-01-15T05:50:18;99090.75;;;2.84;100.00
73063;BME280;61230;46.328;19.972;2024-01-15T05:52:45;99133.63;;;3.10;100.00
73063;BME280;61230;46.328;19.972;2024-01-15T05:55:13;99140.59;;;3.10;100.00
73063;BME280;61230;46.328;19.972;2024-01-15T05:57:41;99139.50;;;3.12;100.00
73063;BME280;61230;46.328;19.972;2024-01-15T06:00:09;99092.53;;;2.83;100.00
73063;BME280;61230;46.328;19.972;2024-01-15T06:02:38;99133.38;;;3.13;100.00
73063;BME280;61230;46.328;19.972;2024-01-15T06:05:07;99135.72;;;3.16;100.00
73063;BME280;61230;46.328;19.972;2024-01-15T06:07:35;99130.66;;;3.15;100.00
73063;BME280;61230;46.328;19.972;2024-01-15T06:10:04;99130.91;;;3.12;100.00
73063;BME280;61230;46.328;19.972;2024-01-15T06:12:32;99130.53;;;3.16;100.00
73063;BME280;61230;46.328;19.972;2024-01-15T06:15:01;99128.62;;;3.18;100.00
73063;BME280;61230;46.328;19.972;2024-01-15T06:17:30;99131.34;;;3.17;100.00
73063;BME280;61230;46.328;19.972;2024-01-15T06:19:58;99132.03;;;3.19;100.00
73063;BME280;61230;46.328;19.972;2024-01-15T06:22:26;99137.94;;;3.21;100.00
73063;BME280;61230;46.328;19.972;2024-01-15T06:24:54;99127.28;;;3.24;100.00
73063;BME280;61230;46.328;19.972;2024-01-15T06:27:22;99131.78;;;3.22;100.00
73063;BME280;61230;46.328;19.972;2024-01-15T06:29:50;99123.87;;;3.23;100.00
73063;BME280;61230;46.328;19.972;2024-01-15T06:32:18;99127.28;;;3.24;100.00
73063;BME280;61230;46.328;19.972;2024-01-15T06:34:45;99125.66;;;3.23;100.00
73063;BME280;61230;46.328;19.972;2024-01-15T06:37:13;99123.75;;;3.25;100.00
73063;BME280;61230;46.328;19.972;2024-01-15T06:39:41;99128.12;;;3.24;100.00
73063;BME280;61230;46.328;19.972;2024-01-15T06:42:09;99132.94;;;3.29;100.00
73063;BME280;61230;46.328;19.972;2024-01-15T06:44:36;99132.22;;;3.27;100.00
73063;BME280;61230;46.328;19.972;2024-01-15T06:47:05;99127.03;;;3.27;100.00
73063;BME280;61230;46.328;19.972;2024-01-15T06:49:33;99129.63;;;3.27;100.00
73063;BME280;61230;46.328;19.972;2024-01-15T06:52:00;99132.94;;;3.29;100.00
73063;BME280;61230;46.328;19.972;2024-01-15T06:54:28;99123.81;;;3.34;100.00
73063;BME280;61230;46.328;19.972;2024-01-15T06:56:56;99138.59;;;3.34;100.00
73063;BME280;61230;46.328;19.972;2024-01-15T06:59:24;99133.13;;;3.37;100.00
73063;BME280;61230;46.328;19.972;2024-01-15T07:01:52;99142.47;;;3.39;100.00
73063;BME280;61230;46.328;19.972;2024-01-15T07:04:20;99109.16;;;3.13;100.00
73063;BME280;61230;46.328;19.972;2024-01-15T07:06:48;99162.41;;;3.39;100.00
73063;BME280;61230;46.328;19.972;2024-01-15T07:09:16;99154.37;;;3.42;100.00
73063;BME280;61230;46.328;19.972;2024-01-15T07:11:45;99159.44;;;3.43;100.00
73063;BME280;61230;46.328;19.972;2024-01-15T07:14:14;99161.91;;;3.45;100.00
73063;BME280;61230;46.328;19.972;2024-01-15T07:16:41;99112.22;;;3.18;100.00
73063;BME280;61230;46.328;19.972;2024-01-15T07:19:14;99104.53;;;3.16;100.00
73063;BME280;61230;46.328;19.972;2024-01-15T07:21:42;99149.16;;;3.42;100.00
73063;BME280;61230;46.328;19.972;2024-01-15T07:24:11;99139.47;;;3.44;100.00
73063;BME280;61230;46.328;19.972;2024-01-15T07:26:39;99143.84;;;3.43;100.00
73063;BME280;61230;46.328;19.972;2024-01-15T07:29:07;99096.50;;;3.19;100.00
73063;BME280;61230;46.328;19.972;2024-01-15T07:31:35;99149.59;;;3.47;100.00
73063;BME280;61230;46.328;19.972;2024-01-15T07:34:04;99149.25;;;3.52;100.00
73063;BME280;61230;46.328;19.972;2024-01-15T07:36:31;99133.56;;;3.42;100.00
73063;BME280;61230;46.328;19.972;2024-01-15T07:38:59;99158.94;;;3.49;100.00
73063;BME280;61230;46.328;19.972;2024-01-15T07:41:27;99173.00;;;3.47;100.00
73063;BME280;61230;46.328;19.972;2024-01-15T07:43:55;99164.97;;;3.50;100.00
73063;BME280;61230;46.328;19.972;2024-01-15T07:46:22;99174.66;;;3.48;100.00
73063;BME280;61230;46.328;19.972;2024-01-15T07:48:50;99173.00;;;3.47;100.00
73063;BME280;61230;46.328;19.972;2024-01-15T07:51:33;99166.03;;;3.47;100.00
73063;BME280;61230;46.328;19.972;2024-01-15T07:54:00;99178.94;;;3.49;100.00
73063;BME280;61230;46.328;19.972;2024-01-15T07:56:28;99174.72;;;3.58;100.00
73063;BME280;61230;46.328;19.972;2024-01-15T07:58:56;99171.69;;;3.53;100.00
73063;BME280;61230;46.328;19.972;2024-01-15T08:01:24;99130.09;;;3.32;100.00
73063;BME280;61230;46.328;19.972;2024-01-15T08:03:52;99185.69;;;3.61;100.00
73063;BME280;61230;46.328;19.972;2024-01-15T08:06:20;99198.28;;;3.24;100.00
73063;BME280;61230;46.328;19.972;2024-01-15T08:08:48;99203.63;;;3.23;100.00
73063;BME280;61230;46.328;19.972;2024-01-15T08:11:16;99164.56;;;3.13;100.00
73063;BME280;61230;46.328;19.972;2024-01-15T08:13:44;99197.94;;;3.49;100.00
73063;BME280;61230;46.328;19.972;2024-01-15T08:16:11;99195.22;;;3.51;100.00
73063;BME280;61230;46.328;19.972;2024-01-15T08:18:41;99165.97;;;3.17;100.00
73063;BME280;61230;46.328;19.972;2024-01-15T08:21:09;99202.75;;;3.02;100.00
73063;BME280;61230;46.328;19.972;2024-01-15T08:23:36;99161.19;;;2.59;100.00
73063;BME280;61230;46.328;19.972;2024-01-15T08:26:04;99162.78;;;2.82;100.00
73063;BME280;61230;46.328;19.972;2024-01-15T08:28:32;99192.16;;;3.25;100.00
73063;BME280;61230;46.328;19.972;2024-01-15T08:30:59;99208.37;;;3.38;100.00
73063;BME280;61230;46.328;19.972;2024-01-15T08:33:28;99203.78;;;3.42;100.00
73063;BME280;61230;46.328;19.972;2024-01-15T08:35:55;99201.75;;;3.45;100.00
73063;BME280;61230;46.328;19.972;2024-01-15T08:38:25;99182.72;;;3.45;100.00
73063;BME280;61230;46.328;19.972;2024-01-15T08:40:53;99196.06;;;3.52;100.00
73063;BME280;61230;46.328;19.972;2024-01-15T08:43:24;99186.34;;;3.54;100.00
73063;BME280;61230;46.328;19.972;2024-01-15T08:45:52;99177.13;;;3.49;100.00
73063;BME280;61230;46.328;19.972;2024-01-15T08:48:20;99195.47;;;3.48;100.00
73063;BME280;61230;46.328;19.972;2024-01-15T08:50:48;99150.03;;;3.11;100.00
73063;BME280;61230;46.328;19.972;2024-01-15T08:53:18;99199.66;;;3.08;100.00
73063;BME280;61230;46.328;19.972;2024-01-15T08:55:46;99205.44;;;3.11;100.00
73063;BME280;61230;46.328;19.972;2024-01-15T08:58:14;99216.69;;;3.32;100.00
73063;BME280;61230;46.328;19.972;2024-01-15T09:00:41;99216.75;;;3.10;100.00
73063;BME280;61230;46.328;19.972;2024-01-15T09:03:09;99226.72;;;3.05;100.00
73063;BME280;61230;46.328;19.972;2024-01-15T09:05:37;99248.16;;;3.18;100.00
73063;BME280;61230;46.328;19.972;2024-01-15T09:08:05;99248.25;;;2.85;100.00
73063;BME280;61230;46.328;19.972;2024-01-15T09:10:33;99245.66;;;2.85;100.00
73063;BME280;61230;46.328;19.972;2024-01-15T09:13:00;99243.28;;;2.82;100.00
73063;BME280;61230;46.328;19.972;2024-01-15T09:15:28;99242.47;;;2.81;100.00
73063;BME280;61230;46.328;19.972;2024-01-15T09:17:56;99247.75;;;3.02;100.00
73063;BME280;61230;46.328;19.972;2024-01-15T09:20:26;99212.34;;;2.90;100.00
73063;BME280;61230;46.328;19.972;2024-01-15T09:22:55;99259.72;;;3.25;100.00
73063;BME280;61230;46.328;19.972;2024-01-15T09:25:22;99257.03;;;3.16;100.00
73063;BME280;61230;46.328;19.972;2024-01-15T09:27:50;99218.31;;;3.02;100.00
73063;BME280;61230;46.328;19.972;2024-01-15T09:30:18;99265.03;;;3.24;100.00
73063;BME280;61230;46.328;19.972;2024-01-15T09:32:46;99266.91;;;3.33;100.00
73063;BME280;61230;46.328;19.972;2024-01-15T09:35:13;99271.03;;;3.35;100.00
73063;BME280;61230;46.328;19.972;2024-01-15T09:37:41;99271.44;;;3.20;100.00
73063;BME280;61230;46.328;19.972;2024-01-15T09:40:15;99271.34;;;3.10;100.00
73063;BME280;61230;46.328;19.972;2024-01-15T09:42:43;99270.06;;;3.05;100.00
73063;BME280;61230;46.328;19.972;2024-01-15T09:45:12;99286.47;;;3.05;100.00
73063;BME280;61230;46.328;19.972;2024-01-15T09:47:40;99281.50;;;3.02;100.00
73063;BME280;61230;46.328;19.972;2024-01-15T09:50:13;99281.88;;;2.98;100.00
73063;BME280;61230;46.328;19.972;2024-01-15T09:52:44;99236.38;;;2.60;100.00
73063;BME280;61230;46.328;19.972;2024-01-15T09:55:13;99258.06;;;2.70;100.00
73063;BME280;61230;46.328;19.972;2024-01-15T09:57:41;99237.91;;;2.52;100.00
73063;BME280;61230;46.328;19.972;2024-01-15T10:00:09;99259.38;;;2.65;100.00
73063;BME280;61230;46.328;19.972;2024-01-15T10:02:39;99264.78;;;2.73;100.00
73063;BME280;61230;46.328;19.972;2024-01-15T10:05:07;99276.84;;;2.52;100.00
73063;BME280;61230;46.328;19.972;2024-01-15T10:07:36;99297.84;;;2.71;100.00
73063;BME280;61230;46.328;19.972;2024-01-15T10:10:05;99293.25;;;2.52;100.00
73063;BME280;61230;46.328;19.972;2024-01-15T10:12:33;99290.28;;;2.57;100.00
73063;BME280;61230;46.328;19.972;2024-01-15T10:15:02;99280.84;;;2.56;100.00
73063;BME280;61230;46.328;19.972;2024-01-15T10:17:30;99273.06;;;2.56;100.00
73063;BME280;61230;46.328;19.972;2024-01-15T10:19:58;99224.22;;;2.27;100.00
73063;BME280;61230;46.328;19.972;2024-01-15T10:22:26;99271.19;;;2.47;100.00
73063;BME280;61230;46.328;19.972;2024-01-15T10:24:55;99262.34;;;2.60;100.00
73063;BME280;61230;46.328;19.972;2024-01-15T10:27:22;99253.91;;;2.79;100.00
73063;BME280;61230;46.328;19.972;2024-01-15T10:29:50;99248.50;;;2.71;100.00
73063;BME280;61230;46.328;19.972;2024-01-15T10:32:18;99246.31;;;2.98;100.00
73063;BME280;61230;46.328;19.972;2024-01-15T10:34:46;99252.28;;;3.21;100.00
73063;BME280;61230;46.328;19.972;2024-01-15T10:37:14;99235.09;;;3.40;100.00
73063;BME280;61230;46.328;19.972;2024-01-15T10:39:43;99232.31;;;3.53;100.00
73063;BME280;61230;46.328;19.972;2024-01-15T10:42:11;99194.81;;;3.35;100.00
73063;BME280;61230;46.328;19.972;2024-01-15T10:44:39;99239.31;;;3.73;100.00
73063;BME280;61230;46.328;19.972;2024-01-15T10:47:07;99221.94;;;3.74;100.00
73063;BME280;61230;46.328;19.972;2024-01-15T10:49:35;99214.06;;;3.85;100.00
73063;BME280;61230;46.328;19.972;2024-01-15T10:52:05;99217.28;;;3.98;100.00
73063;BME280;61230;46.328;19.972;2024-01-15T10:55:05;99216.50;;;4.07;100.00
73063;BME280;61230;46.328;19.972;2024-01-15T10:57:41;99225.31;;;4.16;100.00
73063;BME280;61230;46.328;19.972;2024-01-15T11:00:13;99219.84;;;4.19;100.00
73063;BME280;61230;46.328;19.972;2024-01-15T11:02:42;99205.44;;;4.15;100.00
73063;BME280;61230;46.328;19.972;2024-01-15T11:05:10;99212.44;;;4.14;100.00
73063;BME280;61230;46.328;19.972;2024-01-15T11:07:39;99155.75;;;3.87;100.00
73063;BME280;61230;46.328;19.972;2024-01-15T11:11:14;99191.63;;;4.14;100.00
73063;BME280;61230;46.328;19.972;2024-01-15T11:16:04;99202.56;;;4.18;100.00
73063;BME280;61230;46.328;19.972;2024-01-15T11:18:38;99201.88;;;4.16;100.00
73063;BME280;61230;46.328;19.972;2024-01-15T11:21:42;99193.22;;;4.05;100.00
73063;BME280;61230;46.328;19.972;2024-01-15T11:24:10;99192.72;;;3.91;100.00
73063;BME280;61230;46.328;19.972;2024-01-15T11:26:46;99193.16;;;3.96;100.00
73063;BME280;61230;46.328;19.972;2024-01-15T11:31:58;99148.97;;;3.75;100.00
73063;BME280;61230;46.328;19.972;2024-01-15T11:34:59;99187.66;;;3.89;100.00
73063;BME280;61230;46.328;19.972;2024-01-15T11:40:19;99187.47;;;4.12;100.00
73063;BME280;61230;46.328;19.972;2024-01-15T11:42:48;99195.44;;;4.10;100.00
73063;BME280;61230;46.328;19.972;2024-01-15T11:45:19;99184.44;;;4.06;100.00
73063;BME280;61230;46.328;19.972;2024-01-15T11:50:43;99178.03;;;4.11;100.00
73063;BME280;61230;46.328;19.972;2024-01-15T11:53:43;99172.69;;;4.12;100.00
73063;BME280;61230;46.328;19.972;2024-01-15T11:56:16;99171.69;;;4.03;100.00
73063;BME280;61230;46.328;19.972;2024-01-15T11:58:53;99164.13;;;4.00;100.00
73063;BME280;61230;46.328;19.972;2024-01-15T12:01:21;99187.63;;;4.10;100.00
73063;BME280;61230;46.328;19.972;2024-01-15T12:03:49;99183.34;;;4.09;100.00
73063;BME280;61230;46.328;19.972;2024-01-15T12:06:16;99183.34;;;4.09;100.00
73063;BME280;61230;46.328;19.972;2024-01-15T12:08:44;99158.69;;;4.03;100.00
73063;BME280;61230;46.328;19.972;2024-01-15T12:11:13;99151.28;;;3.99;100.00
73063;BME280;61230;46.328;19.972;2024-01-15T12:13:44;99164.97;;;4.01;100.00
73063;BME280;61230;46.328;19.972;2024-01-15T12:16:13;99165.81;;;4.01;100.00
73063;BME280;61230;46.328;19.972;2024-01-15T12:18:40;99160.84;;;3.98;100.00
73063;BME280;61230;46.328;19.972;2024-01-15T12:21:09;99160.69;;;3.90;100.00
73063;BME280;61230;46.328;19.972;2024-01-15T12:23:39;99151.84;;;4.02;100.00
73063;BME280;61230;46.328;19.972;2024-01-15T12:26:07;99147.75;;;4.10;100.00
73063;BME280;61230;46.328;19.972;2024-01-15T12:28:36;99139.13;;;4.09;100.00
73063;BME280;61230;46.328;19.972;2024-01-15T12:31:05;99126.94;;;4.10;100.00
73063;BME280;61230;46.328;19.972;2024-01-15T12:33:33;99132.44;;;4.16;100.00
73063;BME280;61230;46.328;19.972;2024-01-15T12:36:01;99128.78;;;4.28;100.00
73063;BME280;61230;46.328;19.972;2024-01-15T12:38:30;99124.25;;;4.30;100.00
73063;BME280;61230;46.328;19.972;2024-01-15T12:41:00;99117.03;;;4.34;100.00
73063;BME280;61230;46.328;19.972;2024-01-15T12:43:28;99088.50;;;4.23;100.00
73063;BME280;61230;46.328;19.972;2024-01-15T12:45:56;99107.00;;;4.29;100.00
73063;BME280;61230;46.328;19.972;2024-01-15T12:48:24;99115.09;;;4.36;100.00
73063;BME280;61230;46.328;19.972;2024-01-15T12:50:52;99113.84;;;4.30;100.00
73063;BME280;61230;46.328;19.972;2024-01-15T12:53:20;99113.28;;;4.27;100.00
73063;BME280;61230;46.328;19.972;2024-01-15T12:55:47;99106.84;;;4.21;100.00
73063;BME280;61230;46.328;19.972;2024-01-15T12:58:15;99120.00;;;4.20;100.00
73063;BME280;61230;46.328;19.972;2024-01-15T13:00:47;99107.91;;;4.19;100.00
73063;BME280;61230;46.328;19.972;2024-01-15T13:03:15;99122.84;;;4.17;100.00
73063;BME280;61230;46.328;19.972;2024-01-15T13:05:43;99117.78;;;4.15;100.00
73063;BME280;61230;46.328;19.972;2024-01-15T13:08:13;99123.38;;;4.11;100.00
73063;BME280;61230;46.328;19.972;2024-01-15T13:10:40;99087.66;;;3.82;100.00